Terminal Aerodrome Forecast
Issued by NWS

Home | Current Version | Previous Version | Text Only | Print | Product List | Glossary On
Versions: 1 2 3 4 5 6 7 8 9 10 11 12 13 14 15
000
FTUS46 KSEW 041232 AAB
TAFCLM
TAF AMD
KCLM 041232Z 0413/0512 22003KT P6SM BKN009 OVC028
     FM041500 VRB04KT P6SM SCT010 BKN050
      TEMPO 0415/0418 3SM BR BKN010 OVC050
     FM041800 34006KT P6SM BKN080
     FM042300 31010KT P6SM SCT100 BKN200=

USA.gov is the U.S. government's official web portal to all federal, state and local government web resources and services.